International Falls, Minnesota
Current Conditions -  °F | °C
As of 6:55 AM on Thursday 30 Oct 2014 (Local Time) from KINL Reporting Station
Overcast Overcast  
Wind Chill: 30°   Ceiling: 600
Heat Index: 34°   Visibility: 10mi
Dew Point: 32°   Wind: 5mph
Humidity: 92%   Direction: 290°WNW
Pressure: 30.06"   Gusts: NA
Location:  48.6°N, 93.4°W
Report Text: KINL 301155Z AUTO 29004KT 10SM BKN006 BKN017 OVC035 01/00 A3006 RMK AO2 SLP195 60000 T00110000 10017 20006 53008
Loading
Personal Weather Stations






























Interactive Weather Map
Tropical Storm Tracking
New forecast layout! Learn more

10-Day Weather Forecast

Advertisements
Track Severe Weather on mobile